createdAt,value
2018-07-31T00:01:24.244Z,7.25
2018-07-31T00:03:52.560Z,10.40
2018-07-31T00:06:23.830Z,10.48
2018-07-31T00:08:53.980Z,10.23
2018-07-31T00:11:22.244Z,10.08
2018-07-31T00:13:50.506Z,6.40
2018-07-31T00:16:18.781Z,6.00
2018-07-31T00:18:47.076Z,7.58
2018-07-31T00:21:15.327Z,5.45
2018-07-31T00:23:43.610Z,6.05
2018-07-31T00:26:11.887Z,6.35
2018-07-31T00:28:40.134Z,9.55
2018-07-31T00:31:08.139Z,5.92
2018-07-31T00:33:36.427Z,7.75
2018-07-31T00:36:04.892Z,5.62
2018-07-31T00:38:33.175Z,10.72
2018-07-31T00:41:01.405Z,6.08
2018-07-31T00:43:29.689Z,6.42
2018-07-31T00:45:58.013Z,7.78
2018-07-31T00:48:26.309Z,6.03
2018-07-31T00:50:54.555Z,7.47
2018-07-31T00:53:22.854Z,7.92
2018-07-31T00:55:51.123Z,6.45
2018-07-31T00:58:19.398Z,8.68
2018-07-31T01:00:47.749Z,6.78
2018-07-31T01:03:16.003Z,6.95
2018-07-31T01:05:44.034Z,5.65
2018-07-31T01:08:12.318Z,8.75
2018-07-31T01:10:40.540Z,5.75
2018-07-31T01:13:08.770Z,9.05
2018-07-31T01:15:37.040Z,5.22
2018-07-31T01:18:05.340Z,7.78
2018-07-31T01:20:33.583Z,5.15
2018-07-31T01:23:01.865Z,5.03
2018-07-31T01:25:30.141Z,6.65
2018-07-31T01:27:58.439Z,8.33
2018-07-31T01:30:26.791Z,4.78
2018-07-31T01:32:55.068Z,8.55
2018-07-31T01:35:23.288Z,6.03
2018-07-31T01:37:51.301Z,6.45
2018-07-31T01:40:19.582Z,10.95
2018-07-31T01:42:47.848Z,9.28
2018-07-31T01:45:16.138Z,5.60
2018-07-31T01:47:47.527Z,6.55
2018-07-31T01:50:15.779Z,7.83
2018-07-31T01:52:44.062Z,7.35
2018-07-31T01:55:12.366Z,7.37
2018-07-31T01:57:40.390Z,7.10
2018-07-31T02:00:08.618Z,6.58
2018-07-31T02:02:36.590Z,5.65
2018-07-31T02:05:04.942Z,6.87
2018-07-31T02:07:33.255Z,5.85
2018-07-31T02:10:01.524Z,7.60
2018-07-31T02:12:29.790Z,6.12
2018-07-31T02:14:58.069Z,4.37
2018-07-31T02:17:26.420Z,5.55
2018-07-31T02:19:54.600Z,5.37
2018-07-31T02:22:22.877Z,5.72
2018-07-31T02:24:51.134Z,5.90
2018-07-31T02:27:19.408Z,8.30
2018-07-31T02:29:53.144Z,4.72
2018-07-31T02:32:21.178Z,4.85
2018-07-31T02:34:49.540Z,6.28
2018-07-31T02:37:17.876Z,10.25
2018-07-31T02:39:45.896Z,7.15
2018-07-31T02:42:14.284Z,9.75
2018-07-31T02:44:42.555Z,6.95
2018-07-31T02:47:10.904Z,6.33
2018-07-31T02:49:39.202Z,7.25
2018-07-31T02:52:07.465Z,11.00
2018-07-31T02:54:35.764Z,6.33
2018-07-31T02:57:04.033Z,8.73
2018-07-31T02:59:32.295Z,6.47
2018-07-31T03:02:00.598Z,8.40
2018-07-31T03:04:28.862Z,6.87
2018-07-31T03:06:57.141Z,10.05
2018-07-31T03:09:25.402Z,8.83
2018-07-31T03:11:53.634Z,9.35
2018-07-31T03:14:21.935Z,11.03
2018-07-31T03:16:50.244Z,8.05
2018-07-31T03:19:18.568Z,8.50
2018-07-31T03:21:46.589Z,9.05
2018-07-31T03:24:14.844Z,4.12
2018-07-31T03:26:43.126Z,7.12
2018-07-31T03:29:11.459Z,7.62
2018-07-31T03:31:39.717Z,9.23
2018-07-31T03:34:07.947Z,8.88
2018-07-31T03:36:36.210Z,9.65
2018-07-31T03:39:06.633Z,10.35
2018-07-31T03:41:34.878Z,9.03
2018-07-31T03:44:03.224Z,6.87
2018-07-31T03:46:31.510Z,6.72
2018-07-31T03:48:59.781Z,5.20
2018-07-31T03:51:28.064Z,8.08
2018-07-31T03:53:56.386Z,10.43
2018-07-31T03:56:24.687Z,6.80
2018-07-31T03:58:52.957Z,6.28
2018-07-31T04:01:21.888Z,10.80
2018-07-31T04:03:50.103Z,7.05
2018-07-31T04:06:18.368Z,5.85
2018-07-31T04:08:46.676Z,5.70
2018-07-31T04:11:14.974Z,8.10
2018-07-31T04:13:43.265Z,6.17
2018-07-31T04:16:11.504Z,9.38
2018-07-31T04:18:40.134Z,5.50
2018-07-31T04:21:08.421Z,6.45
2018-07-31T04:23:36.654Z,8.20
2018-07-31T04:26:04.919Z,6.25
2018-07-31T04:28:33.236Z,8.60
2018-07-31T04:31:01.501Z,6.47
2018-07-31T04:33:29.788Z,6.08
2018-07-31T04:35:58.097Z,5.72
2018-07-31T04:38:26.363Z,8.00
2018-07-31T04:40:54.640Z,7.58
2018-07-31T04:43:22.918Z,9.03
2018-07-31T04:45:51.199Z,5.72
2018-07-31T04:48:19.541Z,5.60
2018-07-31T04:50:47.800Z,6.67
2018-07-31T04:53:16.089Z,7.33
2018-07-31T04:55:44.376Z,7.45
2018-07-31T04:58:12.674Z,7.37
2018-07-31T05:00:40.928Z,8.18
2018-07-31T05:03:09.191Z,6.55
2018-07-31T05:05:37.870Z,12.03
2018-07-31T05:08:06.104Z,7.03
2018-07-31T05:10:34.424Z,13.93
2018-07-31T05:13:02.717Z,9.25
2018-07-31T05:15:30.974Z,6.17
2018-07-31T05:17:59.819Z,7.95
2018-07-31T05:20:27.858Z,10.75
2018-07-31T05:22:56.098Z,8.33
2018-07-31T05:25:24.351Z,10.80
2018-07-31T05:27:52.608Z,12.88
2018-07-31T05:30:20.882Z,9.10
2018-07-31T05:32:49.273Z,7.53
2018-07-31T05:35:17.407Z,6.28
2018-07-31T05:37:45.655Z,11.08
2018-07-31T05:40:13.924Z,7.83
2018-07-31T05:42:42.241Z,9.00
2018-07-31T05:45:10.499Z,5.65
2018-07-31T05:47:38.888Z,9.60
2018-07-31T05:50:07.973Z,7.08
2018-07-31T05:52:36.243Z,8.13
2018-07-31T05:55:04.875Z,7.83
2018-07-31T05:57:33.256Z,6.95
2018-07-31T06:00:01.483Z,9.33
2018-07-31T06:02:29.772Z,9.25
2018-07-31T06:04:58.116Z,13.55
2018-07-31T06:07:26.420Z,11.12
2018-07-31T06:09:54.875Z,9.85
2018-07-31T06:12:23.126Z,11.00
2018-07-31T06:14:52.046Z,8.85
2018-07-31T06:17:20.315Z,9.75
2018-07-31T06:19:48.613Z,14.43
2018-07-31T06:22:16.915Z,9.05
2018-07-31T06:24:45.777Z,15.00
2018-07-31T06:27:14.057Z,7.72
2018-07-31T06:29:42.340Z,14.75
2018-07-31T06:32:10.636Z,11.97
2018-07-31T06:34:38.900Z,12.28
2018-07-31T06:37:07.190Z,12.75
2018-07-31T06:39:36.053Z,12.68
2018-07-31T06:42:04.400Z,17.48
2018-07-31T06:44:32.702Z,18.92
2018-07-31T06:47:00.959Z,11.10
2018-07-31T06:49:29.595Z,11.53
2018-07-31T06:51:58.921Z,10.03
2018-07-31T06:54:27.202Z,14.80
2018-07-31T06:56:55.520Z,8.83
2018-07-31T06:59:23.790Z,11.97
2018-07-31T07:01:52.058Z,12.15
2018-07-31T07:04:20.280Z,13.15
2018-07-31T07:06:48.510Z,15.93
2018-07-31T07:09:16.834Z,17.35
2018-07-31T07:11:45.235Z,11.85
2018-07-31T07:14:13.231Z,16.10
2018-07-31T07:16:41.567Z,15.43
2018-07-31T07:19:10.548Z,13.88
2018-07-31T07:21:38.891Z,11.93
2018-07-31T07:24:07.214Z,11.03
2018-07-31T07:26:35.479Z,8.25
2018-07-31T07:29:03.792Z,10.48
2018-07-31T07:31:32.077Z,9.83
2018-07-31T07:34:00.408Z,10.98
2018-07-31T07:36:28.706Z,9.58
2018-07-31T07:38:56.943Z,9.83
2018-07-31T07:41:25.292Z,10.23
2018-07-31T07:43:53.606Z,15.10
2018-07-31T07:46:21.943Z,11.75
2018-07-31T07:48:50.179Z,9.40
2018-07-31T07:51:18.449Z,13.55
2018-07-31T07:53:46.771Z,7.55
2018-07-31T07:56:14.960Z,7.10
2018-07-31T07:58:43.267Z,10.25
2018-07-31T08:01:11.537Z,11.75
2018-07-31T08:03:39.899Z,10.32
2018-07-31T08:06:08.260Z,8.35
2018-07-31T08:08:36.518Z,6.42
2018-07-31T08:11:04.803Z,8.55
2018-07-31T08:13:33.095Z,10.72
2018-07-31T08:16:02.229Z,10.60
2018-07-31T08:18:30.490Z,8.25
2018-07-31T08:20:58.762Z,6.17
2018-07-31T08:23:27.038Z,6.45
2018-07-31T08:25:55.351Z,9.90
2018-07-31T08:28:24.801Z,8.58
2018-07-31T08:30:53.060Z,6.85
2018-07-31T08:33:21.365Z,7.40
2018-07-31T08:35:49.644Z,4.87
2018-07-31T08:38:17.967Z,6.62
2018-07-31T08:40:46.244Z,8.53
2018-07-31T08:43:14.476Z,7.17
2018-07-31T08:45:42.761Z,5.30
2018-07-31T08:48:11.910Z,7.35
2018-07-31T08:50:40.187Z,6.92
2018-07-31T08:53:08.432Z,13.18
2018-07-31T08:55:36.741Z,5.20
2018-07-31T08:58:04.964Z,6.08
2018-07-31T09:00:33.282Z,5.50
2018-07-31T09:03:01.546Z,6.45
2018-07-31T09:05:29.509Z,6.55
2018-07-31T09:07:57.563Z,3.83
2018-07-31T09:10:25.860Z,8.20
2018-07-31T09:12:53.822Z,4.00
2018-07-31T09:15:22.132Z,9.83
2018-07-31T09:17:50.525Z,6.42
2018-07-31T09:20:18.795Z,4.67
2018-07-31T09:22:47.030Z,6.22
2018-07-31T09:25:15.291Z,6.25
2018-07-31T09:27:44.253Z,4.80
2018-07-31T09:30:12.538Z,5.17
2018-07-31T09:32:46.300Z,5.55
2018-07-31T09:35:14.632Z,8.48
2018-07-31T09:37:42.855Z,10.95
2018-07-31T09:40:11.150Z,7.47
2018-07-31T09:42:39.452Z,7.33
2018-07-31T09:45:07.768Z,8.03
2018-07-31T09:47:35.777Z,6.95
2018-07-31T09:50:04.374Z,4.20
2018-07-31T09:52:32.654Z,6.97
2018-07-31T09:55:00.952Z,3.72
2018-07-31T09:57:29.235Z,4.67
2018-07-31T09:59:57.546Z,7.85
2018-07-31T10:02:25.806Z,7.58
2018-07-31T10:04:53.823Z,3.30
2018-07-31T10:07:22.039Z,10.10
2018-07-31T10:09:50.072Z,4.20
2018-07-31T10:12:18.335Z,4.95
2018-07-31T10:14:46.584Z,5.35
2018-07-31T10:17:14.941Z,7.78
2018-07-31T10:19:42.916Z,5.95
2018-07-31T10:22:11.255Z,8.68
2018-07-31T10:24:39.485Z,7.17
2018-07-31T10:27:07.768Z,7.22
2018-07-31T10:29:35.988Z,4.55
2018-07-31T10:32:04.538Z,5.62
2018-07-31T10:34:32.812Z,4.55
2018-07-31T10:37:01.085Z,7.58
2018-07-31T10:39:29.366Z,4.35
2018-07-31T10:41:57.832Z,5.22
2018-07-31T10:44:26.097Z,3.65
2018-07-31T10:46:54.925Z,8.15
2018-07-31T10:49:23.229Z,4.95
2018-07-31T10:51:51.488Z,5.12
2018-07-31T10:54:19.735Z,2.85
2018-07-31T10:56:47.990Z,6.30
2018-07-31T10:59:16.291Z,3.75
2018-07-31T11:01:44.529Z,1.62
2018-07-31T11:04:12.825Z,6.00
2018-07-31T11:06:41.306Z,7.30
2018-07-31T11:09:10.829Z,7.03
2018-07-31T11:11:40.298Z,3.95
2018-07-31T11:14:09.155Z,4.40
2018-07-31T11:16:37.476Z,4.62
2018-07-31T11:19:05.853Z,9.50
2018-07-31T11:21:34.137Z,5.80
2018-07-31T11:24:02.419Z,5.20
2018-07-31T11:26:30.696Z,12.15
2018-07-31T11:28:59.004Z,3.90
2018-07-31T11:31:27.291Z,4.53
2018-07-31T11:33:55.623Z,3.52
2018-07-31T11:36:23.911Z,8.18
2018-07-31T11:38:52.207Z,6.92
2018-07-31T11:41:20.476Z,6.78
2018-07-31T11:43:48.711Z,4.17
2018-07-31T11:46:16.699Z,4.83
2018-07-31T11:48:44.954Z,11.10
2018-07-31T11:51:12.959Z,6.72
2018-07-31T11:53:41.264Z,4.40
2018-07-31T11:56:09.633Z,7.10
2018-07-31T11:58:37.931Z,4.65
2018-07-31T12:01:06.241Z,6.58
2018-07-31T12:03:34.468Z,6.62
2018-07-31T12:06:02.787Z,7.47
2018-07-31T12:08:32.993Z,8.38
2018-07-31T12:11:01.273Z,7.30
2018-07-31T12:13:29.568Z,5.97
2018-07-31T12:15:57.939Z,7.00
2018-07-31T12:18:26.110Z,3.30
2018-07-31T12:20:54.419Z,3.67
2018-07-31T12:23:22.681Z,7.40
2018-07-31T12:25:50.894Z,3.45
2018-07-31T12:28:19.230Z,6.17
2018-07-31T12:30:47.496Z,5.87
2018-07-31T12:33:15.751Z,6.75
2018-07-31T12:35:44.003Z,6.12
2018-07-31T12:38:12.349Z,4.25
2018-07-31T12:40:40.581Z,4.28
2018-07-31T12:43:09.004Z,3.72
2018-07-31T12:45:37.244Z,3.00
2018-07-31T12:48:05.550Z,2.50
2018-07-31T12:50:33.811Z,4.15
2018-07-31T12:53:02.114Z,4.03
2018-07-31T12:55:30.370Z,4.05
2018-07-31T12:57:58.587Z,3.17
2018-07-31T13:00:27.370Z,4.15
2018-07-31T13:02:55.733Z,6.25
2018-07-31T13:05:24.039Z,7.12
2018-07-31T13:07:52.298Z,4.17
2018-07-31T13:10:20.606Z,4.75
2018-07-31T13:12:48.866Z,10.08
2018-07-31T13:15:18.098Z,1.95
2018-07-31T13:17:46.343Z,4.95
2018-07-31T13:20:14.623Z,5.03
2018-07-31T13:22:42.902Z,2.87
2018-07-31T13:25:11.199Z,5.25
2018-07-31T13:27:39.569Z,5.97
2018-07-31T13:30:08.215Z,7.28
2018-07-31T13:32:36.456Z,5.42
2018-07-31T13:35:04.779Z,3.60
2018-07-31T13:37:33.068Z,4.30
2018-07-31T13:40:01.327Z,4.83
2018-07-31T13:42:29.622Z,4.70
2018-07-31T13:44:57.873Z,8.63
2018-07-31T13:47:26.170Z,6.00
2018-07-31T13:49:54.429Z,4.33
2018-07-31T13:52:22.697Z,7.72
2018-07-31T13:54:50.994Z,5.65
2018-07-31T13:57:19.295Z,9.13
2018-07-31T13:59:47.546Z,5.00
2018-07-31T14:02:15.810Z,1.95
2018-07-31T14:04:44.075Z,4.05
2018-07-31T14:07:12.335Z,7.85
2018-07-31T14:09:40.608Z,7.00
2018-07-31T14:12:08.917Z,4.35
2018-07-31T14:14:37.222Z,6.35
2018-07-31T14:17:05.482Z,7.75
2018-07-31T14:19:33.738Z,6.83
2018-07-31T14:22:02.045Z,6.05
2018-07-31T14:24:30.319Z,5.83
2018-07-31T14:26:58.586Z,7.78
2018-07-31T14:29:26.883Z,4.95
2018-07-31T14:31:55.106Z,6.03
2018-07-31T14:34:23.391Z,6.87
2018-07-31T14:36:51.641Z,6.55
2018-07-31T14:39:19.907Z,6.35
2018-07-31T14:41:48.149Z,4.03
2018-07-31T14:44:16.458Z,4.67
2018-07-31T14:46:44.685Z,6.20
2018-07-31T14:49:12.969Z,4.00
2018-07-31T14:51:41.927Z,4.87
2018-07-31T14:54:10.343Z,7.17
2018-07-31T14:56:38.585Z,7.70
2018-07-31T14:59:06.900Z,5.15
2018-07-31T15:01:35.191Z,3.12
2018-07-31T15:04:03.431Z,4.97
2018-07-31T15:06:31.740Z,5.47
2018-07-31T15:08:59.997Z,4.53
2018-07-31T15:11:28.251Z,4.17
2018-07-31T15:13:56.628Z,3.50
2018-07-31T15:16:24.851Z,4.28
2018-07-31T15:18:53.113Z,6.45
2018-07-31T15:21:21.675Z,5.83
2018-07-31T15:23:49.972Z,3.10
2018-07-31T15:26:18.279Z,3.50
2018-07-31T15:28:46.568Z,3.87
2018-07-31T15:31:14.832Z,4.58
2018-07-31T15:33:43.063Z,4.05
2018-07-31T15:36:11.330Z,2.58
2018-07-31T15:38:39.686Z,4.47
2018-07-31T15:41:07.944Z,6.08
2018-07-31T15:43:36.215Z,5.80
2018-07-31T15:46:04.512Z,2.42
2018-07-31T15:48:32.779Z,4.87
2018-07-31T15:51:01.095Z,3.15
2018-07-31T15:53:29.429Z,3.30
2018-07-31T15:55:57.899Z,4.22
2018-07-31T15:58:26.336Z,4.40
2018-07-31T16:00:54.607Z,5.22
2018-07-31T16:03:22.914Z,3.25
2018-07-31T16:05:50.979Z,2.37
2018-07-31T16:08:19.184Z,3.83
2018-07-31T16:10:47.448Z,3.22
2018-07-31T16:13:15.759Z,4.28
2018-07-31T16:15:44.275Z,2.15
2018-07-31T16:18:12.528Z,2.08
2018-07-31T16:20:40.791Z,4.42
2018-07-31T16:23:09.138Z,6.15
2018-07-31T16:25:37.304Z,4.05
2018-07-31T16:28:05.667Z,3.05
2018-07-31T16:30:33.921Z,4.95
2018-07-31T16:33:02.210Z,4.80
2018-07-31T16:35:30.500Z,6.25
2018-07-31T16:37:58.805Z,1.95
2018-07-31T16:40:27.507Z,2.87
2018-07-31T16:42:56.041Z,3.25
2018-07-31T16:45:24.346Z,3.75
2018-07-31T16:47:52.963Z,4.70
2018-07-31T16:50:21.202Z,5.30
2018-07-31T16:52:49.539Z,1.40
2018-07-31T16:55:18.351Z,3.22
2018-07-31T16:57:46.663Z,3.65
2018-07-31T17:00:14.972Z,4.53
2018-07-31T17:02:43.256Z,5.03
2018-07-31T17:05:11.569Z,1.27
2018-07-31T17:07:39.867Z,1.52
2018-07-31T17:10:08.450Z,1.82
2018-07-31T17:12:36.712Z,3.45
2018-07-31T17:15:06.827Z,4.92
2018-07-31T17:17:35.125Z,6.78
2018-07-31T17:20:03.365Z,3.17
2018-07-31T17:22:31.644Z,2.47
2018-07-31T17:24:59.939Z,3.37
2018-07-31T17:27:28.220Z,3.98
2018-07-31T17:29:56.564Z,5.30
2018-07-31T17:32:24.852Z,3.80
2018-07-31T17:34:53.108Z,3.00
2018-07-31T17:37:21.375Z,1.87
2018-07-31T17:39:49.659Z,3.90
2018-07-31T17:42:17.918Z,3.58
2018-07-31T17:44:46.738Z,4.17
2018-07-31T17:47:15.059Z,7.12
2018-07-31T17:49:43.363Z,4.50
2018-07-31T17:52:11.646Z,3.22
2018-07-31T17:54:46.643Z,3.05
2018-07-31T17:57:14.907Z,4.97
2018-07-31T17:59:43.567Z,4.87
2018-07-31T18:02:11.856Z,1.85
2018-07-31T18:04:40.113Z,1.95
2018-07-31T18:07:08.463Z,4.80
2018-07-31T18:09:36.711Z,7.15
2018-07-31T18:12:05.015Z,3.77
2018-07-31T18:14:33.348Z,2.15
2018-07-31T18:17:01.487Z,4.83
2018-07-31T18:19:29.774Z,2.95
2018-07-31T18:21:57.780Z,2.30
2018-07-31T18:24:26.073Z,1.77
2018-07-31T18:26:54.358Z,2.08
2018-07-31T18:29:22.637Z,2.25
2018-07-31T18:31:50.957Z,4.15
2018-07-31T18:34:18.980Z,4.12
2018-07-31T18:36:47.250Z,1.60
2018-07-31T18:39:15.550Z,1.27
2018-07-31T18:41:43.846Z,3.42
2018-07-31T18:44:12.092Z,3.15
2018-07-31T18:46:40.628Z,2.12
2018-07-31T18:49:08.665Z,2.02
2018-07-31T18:51:36.926Z,3.15
2018-07-31T18:54:05.243Z,2.45
2018-07-31T18:56:33.255Z,1.77
2018-07-31T18:59:01.554Z,2.90
2018-07-31T19:01:29.893Z,3.42
2018-07-31T19:03:59.195Z,3.55
2018-07-31T19:06:27.529Z,4.42
2018-07-31T19:08:55.549Z,1.22
2018-07-31T19:11:23.924Z,3.67
2018-07-31T19:13:52.211Z,6.37
2018-07-31T19:16:20.579Z,1.45
2018-07-31T19:18:48.831Z,3.15
2018-07-31T19:21:17.089Z,2.30
2018-07-31T19:23:45.098Z,4.87
2018-07-31T19:26:13.397Z,1.87
2018-07-31T19:28:42.736Z,5.33
2018-07-31T19:31:11.055Z,2.05
2018-07-31T19:33:39.335Z,1.90
2018-07-31T19:36:07.736Z,2.72
2018-07-31T19:38:36.003Z,2.25
2018-07-31T19:41:04.276Z,4.87
2018-07-31T19:43:32.535Z,1.77
2018-07-31T19:48:35.564Z,3.65
2018-07-31T19:51:03.816Z,4.92
2018-07-31T19:53:32.063Z,6.00
2018-07-31T19:56:00.101Z,3.65
2018-07-31T19:58:28.412Z,2.70
2018-07-31T20:00:56.713Z,11.43
2018-07-31T20:03:24.987Z,6.78
2018-07-31T20:05:53.252Z,3.62
2018-07-31T20:08:22.043Z,3.50
2018-07-31T20:10:50.035Z,3.92
2018-07-31T20:13:18.310Z,5.60
2018-07-31T20:15:46.678Z,4.55
2018-07-31T20:18:14.849Z,4.10
2018-07-31T20:20:43.160Z,4.60
2018-07-31T20:23:11.447Z,7.47
2018-07-31T20:25:39.723Z,5.37
2018-07-31T20:28:08.163Z,5.70
2018-07-31T20:30:36.500Z,4.80
2018-07-31T20:33:04.775Z,2.35
2018-07-31T20:35:33.063Z,4.58
2018-07-31T20:38:01.108Z,5.28
2018-07-31T20:40:29.359Z,4.00
2018-07-31T20:42:57.630Z,8.80
2018-07-31T20:45:25.871Z,7.72
2018-07-31T20:47:54.700Z,7.47
2018-07-31T20:50:23.048Z,6.17
2018-07-31T20:52:51.217Z,3.17
2018-07-31T20:55:19.509Z,7.40
2018-07-31T20:57:47.765Z,7.90
2018-07-31T21:00:16.067Z,6.00
2018-07-31T21:02:44.372Z,12.33
2018-07-31T21:05:12.604Z,9.88
2018-07-31T21:07:40.888Z,5.28
2018-07-31T21:10:09.191Z,6.72
2018-07-31T21:12:38.070Z,8.63
2018-07-31T21:15:06.390Z,7.92
2018-07-31T21:17:34.625Z,7.70
2018-07-31T21:20:02.881Z,8.08
2018-07-31T21:22:31.131Z,7.10
2018-07-31T21:24:59.106Z,7.03
2018-07-31T21:27:27.968Z,7.78
2018-07-31T21:29:56.210Z,5.80
2018-07-31T21:32:24.522Z,6.35
2018-07-31T21:34:52.784Z,7.05
2018-07-31T21:37:21.572Z,5.53
2018-07-31T21:39:49.858Z,5.08
2018-07-31T21:42:18.146Z,9.30
2018-07-31T21:44:46.410Z,4.58
2018-07-31T21:47:14.667Z,6.40
2018-07-31T21:49:42.932Z,9.45
2018-07-31T21:52:11.201Z,5.12
2018-07-31T21:54:39.757Z,9.98
2018-07-31T21:57:08.242Z,10.60
2018-07-31T21:59:36.815Z,6.15
2018-07-31T22:02:05.103Z,4.67
2018-07-31T22:04:33.822Z,6.85
2018-07-31T22:07:02.133Z,4.75
2018-07-31T22:09:30.452Z,7.10
2018-07-31T22:11:58.920Z,7.90
2018-07-31T22:14:27.306Z,5.58
2018-07-31T22:16:55.622Z,4.10
2018-07-31T22:19:23.871Z,5.45
2018-07-31T22:21:52.070Z,8.23
2018-07-31T22:24:21.487Z,4.85
2018-07-31T22:26:49.729Z,11.38
2018-07-31T22:29:18.059Z,4.92
2018-07-31T22:31:46.351Z,6.15
2018-07-31T22:34:14.616Z,5.60
2018-07-31T22:36:42.633Z,6.05
2018-07-31T22:39:11.780Z,7.20
2018-07-31T22:41:40.185Z,8.70
2018-07-31T22:44:08.492Z,8.05
2018-07-31T22:46:36.763Z,6.42
2018-07-31T22:49:05.016Z,6.50
2018-07-31T22:51:33.311Z,3.50
2018-07-31T22:54:01.615Z,6.67
2018-07-31T22:56:29.883Z,3.47
2018-07-31T22:58:58.751Z,4.42
2018-07-31T23:01:27.063Z,7.67
2018-07-31T23:03:55.346Z,5.67
2018-07-31T23:06:23.587Z,6.85
2018-07-31T23:08:52.074Z,6.58
2018-07-31T23:11:20.362Z,8.50
2018-07-31T23:13:48.675Z,5.42
2018-07-31T23:16:17.010Z,3.92
2018-07-31T23:18:45.302Z,8.75
2018-07-31T23:21:13.657Z,5.67
2018-07-31T23:23:42.105Z,4.20
2018-07-31T23:26:10.402Z,7.65
2018-07-31T23:28:39.349Z,4.85
2018-07-31T23:31:07.987Z,6.45
2018-07-31T23:33:36.229Z,8.75
2018-07-31T23:36:04.458Z,10.95
2018-07-31T23:38:32.711Z,5.05
2018-07-31T23:41:00.996Z,10.28
2018-07-31T23:43:29.286Z,7.35
2018-07-31T23:45:57.549Z,5.75
2018-07-31T23:48:25.833Z,6.92
2018-07-31T23:50:54.141Z,5.95
2018-07-31T23:53:22.131Z,5.10
2018-07-31T23:55:50.359Z,6.55
2018-07-31T23:58:18.643Z,7.62
